Time;durP1;ratioP1;P1;durP2;ratioP2;P2;SDS_P1;SDS_P2;PMS_P1;PMS_P2;Temp;Humidity;BMP_temperature;BMP_pressure;BME280_temperature;BME280_humidity;BME280_pressure;Samples;Min_cycle;Max_cycle;Signal;HPM_P1;HPM_P2
2021/12/28 00:00:19;;;;;;;209.57;22.92;;;;;;;6.81;100.00;96207.50;4964765;28;20042;-89
2021/12/28 00:02:46;;;;;;;798.85;50.15;;;;;;;6.72;100.00;96198.50;4953305;28;20035;-91
2021/12/28 00:05:13;;;;;;;378.20;27.38;;;;;;;6.85;100.00;96218.22;4952232;28;20114;-90
2021/12/28 00:07:39;;;;;;;47.08;13.73;;;;;;;6.90;100.00;96222.72;4955085;28;20034;-90
2021/12/28 00:10:08;;;;;;;36.42;12.65;;;;;;;6.94;100.00;96224.63;4973912;28;20046;-91
2021/12/28 00:12:37;;;;;;;185.48;22.20;;;;;;;6.93;100.00;96217.81;4955833;28;20018;-90
2021/12/28 00:15:07;;;;;;;209.25;22.05;;;;;;;6.86;100.00;96201.56;4951488;28;20041;-90
2021/12/28 00:20:18;;;;;;;313.15;24.90;;;;;;;6.90;100.00;96204.47;4966806;28;20046;-88
2021/12/28 00:22:44;;;;;;;279.67;25.00;;;;;;;6.92;100.00;96216.25;4955938;28;20030;-91
2021/12/28 00:25:11;;;;;;;259.67;22.75;;;;;;;6.96;100.00;96219.94;4954932;28;20117;-90
2021/12/28 00:27:38;;;;;;;321.85;24.98;;;;;;;6.76;100.00;96183.19;4956447;28;20038;-90
2021/12/28 00:30:05;;;;;;;103.18;16.02;;;;;;;6.94;100.00;96208.16;4955613;28;20113;-89
2021/12/28 00:32:31;;;;;;;65.53;14.18;;;;;;;6.98;100.00;96212.66;4973050;28;20038;-89
2021/12/28 00:34:57;;;;;;;26.65;12.13;;;;;;;6.95;100.00;96199.31;4968784;28;20030;-90
2021/12/28 00:37:23;;;;;;;292.92;22.42;;;;;;;6.83;100.00;96194.22;4959254;28;20038;-89
2021/12/28 00:39:49;;;;;;;27.08;11.93;;;;;;;6.91;100.00;96200.84;4973449;28;20042;-88
2021/12/28 00:42:15;;;;;;;109.47;15.65;;;;;;;7.07;100.00;96230.50;4972820;28;20034;-90
2021/12/28 00:44:41;;;;;;;355.65;25.35;;;;;;;6.81;100.00;96198.88;4956676;28;20102;-90
2021/12/28 00:47:06;;;;;;;27.88;12.57;;;;;;;7.06;100.00;96227.13;4956707;28;20035;-90
2021/12/28 00:49:32;;;;;;;126.22;17.55;;;;;;;7.07;100.00;96243.53;4972384;28;20527;-91
2021/12/28 00:51:58;;;;;;;51.20;16.85;;;;;;;7.04;100.00;96239.63;4959416;28;20091;-90
2021/12/28 00:54:25;;;;;;;33.03;14.25;;;;;;;6.97;100.00;96228.56;4974788;28;20404;-85
2021/12/28 00:56:50;;;;;;;43.80;14.48;;;;;;;7.04;100.00;96249.25;4966653;28;20057;-90
2021/12/28 00:59:16;;;;;;;107.60;16.58;;;;;;;6.97;100.00;96245.00;4969614;28;20026;-88
2021/12/28 01:01:42;;;;;;;40.55;15.27;;;;;;;7.02;100.00;96252.13;4952500;28;20033;-88
2021/12/28 01:04:07;;;;;;;219.32;22.88;;;;;;;6.82;100.00;96234.34;4951101;28;20066;-88
2021/12/28 01:06:34;;;;;;;63.35;16.30;;;;;;;6.92;100.00;96246.75;4953103;28;20069;-89
2021/12/28 01:08:59;;;;;;;53.40;15.77;;;;;;;6.95;100.00;96252.28;4951886;28;20028;-87
2021/12/28 01:11:25;;;;;;;185.30;21.00;;;;;;;6.85;100.00;96246.91;4951152;28;20026;-88
2021/12/28 01:13:51;;;;;;;31.70;13.68;;;;;;;6.88;100.00;96235.22;4971606;28;20030;-86
2021/12/28 01:16:18;;;;;;;93.82;17.90;;;;;;;6.77;100.00;96224.63;4962883;28;20027;-87
2021/12/28 01:18:44;;;;;;;37.63;14.07;;;;;;;6.81;100.00;96225.75;4932188;29;20050;-86
2021/12/28 01:21:10;;;;;;;46.63;14.23;;;;;;;6.83;100.00;96225.50;4931590;29;20035;-88
2021/12/28 01:23:35;;;;;;;33.80;12.30;;;;;;;6.84;100.00;96229.69;4946821;29;20027;-89
2021/12/28 01:26:02;;;;;;;43.78;14.35;;;;;;;6.89;100.00;96226.38;4947912;29;20067;-87
2021/12/28 01:28:28;;;;;;;164.70;18.85;;;;;;;6.86;100.00;96214.59;4964673;29;20039;-88
2021/12/28 01:30:53;;;;;;;43.45;13.27;;;;;;;6.89;100.00;96201.09;4952736;29;20086;-91
2021/12/28 01:33:19;;;;;;;62.35;12.98;;;;;;;6.91;100.00;96203.44;4948487;29;20038;-90
2021/12/28 01:35:45;;;;;;;62.30;14.30;;;;;;;6.93;100.00;96207.41;4934790;29;20039;-88
2021/12/28 01:38:11;;;;;;;105.80;17.17;;;;;;;6.78;100.00;96183.72;4935856;29;20039;-89
2021/12/28 01:40:40;;;;;;;50.38;14.60;;;;;;;6.85;100.00;96200.78;4951887;29;20070;-91
2021/12/28 01:43:13;;;;;;;32.58;13.73;;;;;;;6.95;100.00;96225.41;4950666;29;20504;-90
2021/12/28 01:45:44;;;;;;;35.70;14.90;;;;;;;6.97;100.00;96234.56;4947016;29;20106;-88
2021/12/28 01:48:13;;;;;;;37.22;14.80;;;;;;;6.91;100.00;96229.53;4937299;29;20401;-90
2021/12/28 01:50:40;;;;;;;43.55;14.35;;;;;;;6.92;100.00;96228.50;4969190;29;20031;-89
2021/12/28 01:53:07;;;;;;;36.13;14.77;;;;;;;7.09;100.00;96236.28;4952347;29;20174;-89
2021/12/28 01:55:35;;;;;;;38.45;15.73;;;;;;;7.17;100.00;96253.31;4933146;29;20039;-89
2021/12/28 01:58:01;;;;;;;60.35;16.48;;;;;;;7.10;100.00;96248.31;4934673;29;20031;-89
2021/12/28 02:00:28;;;;;;;45.67;15.25;;;;;;;6.95;100.00;96234.03;4951958;29;20086;-91
2021/12/28 02:02:54;;;;;;;30.55;12.48;;;;;;;6.93;100.00;96230.88;4937011;29;20062;-87
2021/12/28 02:05:20;;;;;;;32.53;11.77;;;;;;;7.03;100.00;96242.44;4968666;29;20039;-88
2021/12/28 02:07:46;;;;;;;30.27;12.30;;;;;;;7.00;100.00;96249.72;4936707;29;20062;-89
2021/12/28 02:10:12;;;;;;;31.20;13.35;;;;;;;7.02;100.00;96235.66;4934245;29;20039;-89
2021/12/28 02:12:37;;;;;;;34.92;13.48;;;;;;;7.04;100.00;96238.81;4949239;29;20057;-87
2021/12/28 02:15:07;;;;;;;30.00;13.15;;;;;;;7.03;100.00;96222.38;4933763;29;20035;-86
2021/12/28 02:17:36;;;;;;;28.58;12.43;;;;;;;7.03;100.00;96221.59;4953371;28;20138;-87
2021/12/28 02:20:08;;;;;;;31.00;12.18;;;;;;;7.00;100.00;96226.25;4950454;28;20058;-89
2021/12/28 02:22:34;;;;;;;28.55;12.10;;;;;;;6.99;100.00;96223.91;4969024;28;20042;-88
2021/12/28 02:25:00;;;;;;;31.55;12.13;;;;;;;7.10;100.00;96243.09;4953570;28;20039;-87
2021/12/28 02:27:28;;;;;;;29.90;12.00;;;;;;;7.13;100.00;96253.81;4969079;28;20062;-89
2021/12/28 02:29:53;;;;;;;36.83;12.98;;;;;;;7.09;100.00;96252.72;4969068;28;20135;-86
2021/12/28 02:32:20;;;;;;;32.03;11.82;;;;;;;7.13;100.00;96253.81;4954329;28;20038;-88
2021/12/28 02:34:46;;;;;;;28.90;11.93;;;;;;;7.05;100.00;96240.38;4957455;28;20047;-90
2021/12/28 02:37:11;;;;;;;28.50;11.73;;;;;;;7.01;100.00;96221.84;4969858;28;20088;-88
2021/12/28 02:39:37;;;;;;;36.53;13.30;;;;;;;6.94;100.00;96213.38;4961019;28;20046;-88
2021/12/28 02:42:03;;;;;;;34.97;12.85;;;;;;;6.95;100.00;96218.38;4978043;28;20038;-88
2021/12/28 02:44:30;;;;;;;32.75;12.30;;;;;;;7.00;100.00;96218.44;4960904;28;20026;-90
2021/12/28 02:46:55;;;;;;;27.75;11.02;;;;;;;7.04;100.00;96221.34;4972372;28;20037;-88
2021/12/28 02:49:21;;;;;;;24.42;10.55;;;;;;;6.96;100.00;96204.31;4955105;28;20041;-87
2021/12/28 02:51:46;;;;;;;33.80;10.85;;;;;;;6.93;100.00;96210.00;4955304;28;20034;-88
2021/12/28 02:54:12;;;;;;;26.58;10.68;;;;;;;6.88;100.00;96202.13;4954237;28;20066;-88
2021/12/28 02:56:38;;;;;;;27.50;11.00;;;;;;;6.99;100.00;96216.84;4954793;28;20034;-88
2021/12/28 02:59:04;;;;;;;30.10;11.27;;;;;;;6.95;100.00;96200.13;4953363;28;20090;-88
2021/12/28 03:01:30;;;;;;;26.98;10.98;;;;;;;6.91;100.00;96182.59;4969881;28;20350;-89
2021/12/28 03:04:03;;;;;;;27.65;10.25;;;;;;;7.06;100.00;96206.25;4969928;28;20492;-89
2021/12/28 03:06:29;;;;;;;37.00;11.55;;;;;;;6.98;100.00;96189.19;4955721;28;20045;-88
2021/12/28 03:08:57;;;;;;;33.70;11.60;;;;;;;7.09;100.00;96200.56;4972346;28;20073;-89
2021/12/28 03:11:25;;;;;;;28.67;10.35;;;;;;;7.11;100.00;96192.50;4987783;28;20038;-89
2021/12/28 03:13:55;;;;;;;30.23;10.75;;;;;;;7.14;100.00;96190.16;4972925;28;20030;-88
2021/12/28 03:16:23;;;;;;;29.48;11.20;;;;;;;7.12;100.00;96176.59;4970904;28;20153;-89
2021/12/28 03:18:49;;;;;;;27.25;11.25;;;;;;;7.14;100.00;96168.53;4986476;28;20076;-88
2021/12/28 03:21:18;;;;;;;27.38;10.48;;;;;;;7.26;100.00;96174.38;4970872;28;20037;-87
2021/12/28 03:23:44;;;;;;;29.63;11.35;;;;;;;7.16;100.00;96153.41;4957763;28;20027;-88
2021/12/28 03:26:12;;;;;;;25.08;9.90;;;;;;;7.29;100.00;96179.16;4952949;28;20046;-87
2021/12/28 03:28:41;;;;;;;31.92;11.10;;;;;;;7.33;100.00;96186.47;4951720;28;20031;-88
2021/12/28 03:31:09;;;;;;;25.08;10.55;;;;;;;7.27;100.00;96181.22;4951847;28;20039;-90
2021/12/28 03:33:38;;;;;;;28.42;10.13;;;;;;;7.17;100.00;96156.81;4953026;28;20035;-89
2021/12/28 03:36:06;;;;;;;23.02;10.68;;;;;;;7.21;100.00;96160.53;4971079;28;20056;-87
2021/12/28 03:38:32;;;;;;;27.40;10.15;;;;;;;7.34;100.00;96175.00;4969418;28;20552;-87
2021/12/28 03:40:58;;;;;;;21.83;9.90;;;;;;;7.35;100.00;96160.94;4974240;28;20039;-87
2021/12/28 03:43:24;;;;;;;40.58;11.32;;;;;;;7.38;100.00;96152.59;4950550;28;20098;-86
2021/12/28 03:45:50;;;;;;;28.15;10.75;;;;;;;7.33;100.00;96145.50;4952569;28;20042;-90
2021/12/28 03:48:16;;;;;;;22.50;10.43;;;;;;;7.21;100.00;96124.78;4951255;28;20039;-87
2021/12/28 03:50:45;;;;;;;46.42;11.82;;;;;;;7.21;100.00;96131.81;4968974;28;20145;-89
2021/12/28 03:53:11;;;;;;;65.80;13.30;;;;;;;7.16;100.00;96122.13;4968209;28;20082;-89
2021/12/28 03:55:37;;;;;;;21.73;10.32;;;;;;;7.13;100.00;96117.41;4967275;28;20038;-86
2021/12/28 03:58:04;;;;;;;23.55;10.52;;;;;;;7.23;100.00;96130.53;4954264;28;20125;-87
2021/12/28 04:00:34;;;;;;;25.10;11.23;;;;;;;7.28;100.00;96130.59;4954957;28;20057;-89
2021/12/28 04:03:00;;;;;;;22.30;9.70;;;;;;;7.31;100.00;96134.53;4955750;28;20038;-89
2021/12/28 04:05:26;;;;;;;20.63;10.07;;;;;;;7.20;100.00;96117.97;4956175;28;20422;-89
2021/12/28 04:07:52;;;;;;;22.65;10.35;;;;;;;7.25;100.00;96114.66;4971150;28;20089;-87
2021/12/28 04:10:19;;;;;;;43.45;12.18;;;;;;;7.17;100.00;96102.03;4953266;28;20128;-88
2021/12/28 04:12:45;;;;;;;25.33;10.27;;;;;;;7.19;100.00;96108.56;4969520;28;20054;-88
2021/12/28 04:15:14;;;;;;;24.38;10.38;;;;;;;7.18;100.00;96093.97;4956275;28;20038;-89
2021/12/28 04:17:40;;;;;;;28.63;10.63;;;;;;;7.29;100.00;96120.94;4989822;28;20485;-87
2021/12/28 04:20:12;;;;;;;26.58;11.35;;;;;;;7.12;100.00;96092.34;4980650;28;20489;-88
2021/12/28 04:22:38;;;;;;;27.27;11.10;;;;;;;7.09;100.00;96079.78;4953818;28;20043;-88
2021/12/28 04:25:05;;;;;;;26.17;10.30;;;;;;;7.11;100.00;96067.28;4969992;28;20508;-88
2021/12/28 04:27:31;;;;;;;21.35;9.48;;;;;;;7.32;100.00;96096.19;4953221;28;20026;-89
2021/12/28 04:29:57;;;;;;;24.67;9.80;;;;;;;7.19;100.00;96069.44;4970157;28;20042;-87
2021/12/28 04:32:22;;;;;;;32.70;10.38;;;;;;;7.24;100.00;96076.53;4950254;29;20063;-88
2021/12/28 04:34:48;;;;;;;61.13;11.55;;;;;;;7.28;100.00;96068.00;4955502;28;20023;-88
2021/12/28 04:37:13;;;;;;;21.95;9.85;;;;;;;7.29;100.00;96064.34;4976928;28;20034;-87
2021/12/28 04:39:39;;;;;;;19.73;9.10;;;;;;;7.27;100.00;96061.19;4972117;28;20045;-88
2021/12/28 04:42:05;;;;;;;21.77;9.93;;;;;;;7.09;100.00;96038.06;4956143;28;20034;-87
2021/12/28 04:44:31;;;;;;;26.67;9.50;;;;;;;7.20;100.00;96060.59;4971302;28;20405;-88
2021/12/28 04:46:57;;;;;;;29.05;8.75;;;;;;;7.24;100.00;96063.50;4968164;28;20034;-87
2021/12/28 04:49:25;;;;;;;292.35;19.08;;;;;;;7.20;100.00;96057.97;4952071;28;20046;-89
2021/12/28 04:51:51;;;;;;;67.30;11.10;;;;;;;7.24;100.00;96071.34;4952098;28;20085;-87
2021/12/28 04:54:18;;;;;;;309.10;20.88;;;;;;;7.18;100.00;96060.06;4968810;28;20030;-86
2021/12/28 04:56:45;;;;;;;111.60;12.05;;;;;;;7.08;100.00;96052.13;4952525;28;20035;-87
2021/12/28 04:59:12;;;;;;;66.88;10.65;;;;;;;7.13;100.00;96049.56;4968879;28;20039;-87
2021/12/28 05:01:37;;;;;;;16.05;8.35;;;;;;;7.17;100.00;96052.47;4979622;28;20034;-90
2021/12/28 05:04:04;;;;;;;16.55;9.02;;;;;;;7.03;100.00;96023.38;4987620;28;20081;-89
2021/12/28 05:06:31;;;;;;;88.70;11.07;;;;;;;7.20;100.00;96055.38;4987995;28;20030;-89
2021/12/28 05:08:57;;;;;;;15.15;7.57;;;;;;;7.12;100.00;96040.19;4965034;28;20045;-87
2021/12/28 05:11:22;;;;;;;23.40;8.15;;;;;;;7.21;100.00;96050.94;4961487;28;20034;-88
2021/12/28 05:13:48;;;;;;;14.45;7.80;;;;;;;7.06;100.00;96022.88;4968597;28;20113;-88
2021/12/28 05:16:15;;;;;;;16.23;7.75;;;;;;;7.22;100.00;96042.88;4955848;28;20038;-89
2021/12/28 05:18:41;;;;;;;50.75;8.20;;;;;;;7.22;100.00;96045.47;4998569;28;20053;-88
2021/12/28 05:21:07;;;;;;;17.67;7.50;;;;;;;7.18;100.00;96047.00;4952694;28;20039;-88
2021/12/28 05:23:33;;;;;;;35.70;9.25;;;;;;;7.21;100.00;96041.28;4967941;28;20101;-87
2021/12/28 05:25:58;;;;;;;13.80;6.65;;;;;;;7.12;100.00;96024.53;4971372;28;20065;-86
2021/12/28 05:28:25;;;;;;;13.10;6.75;;;;;;;7.14;100.00;96019.84;4956066;28;20022;-87
2021/12/28 05:30:52;;;;;;;18.23;8.25;;;;;;;7.33;100.00;96053.41;4968181;28;20034;-86
2021/12/28 05:33:18;;;;;;;17.45;7.63;;;;;;;7.27;100.00;96035.09;4951716;28;20097;-89
2021/12/28 05:35:44;;;;;;;25.10;8.40;;;;;;;7.14;100.00;96014.63;4953109;28;20039;-88
2021/12/28 05:38:12;;;;;;;14.98;7.18;;;;;;;7.17;100.00;96014.13;4954698;28;20041;-90
2021/12/28 05:40:39;;;;;;;16.65;7.00;;;;;;;7.31;100.00;96021.56;4972538;28;20088;-88
2021/12/28 05:43:05;;;;;;;16.30;7.88;;;;;;;7.23;100.00;96010.53;4972798;28;20050;-88
2021/12/28 05:45:31;;;;;;;13.52;7.22;;;;;;;7.26;100.00;96011.88;4972285;28;20038;-88
2021/12/28 05:47:56;;;;;;;13.85;7.53;;;;;;;7.33;100.00;96022.88;4973775;28;20038;-91
2021/12/28 05:50:22;;;;;;;14.20;7.07;;;;;;;7.27;100.00;96009.00;4972706;28;20038;-88
2021/12/28 05:52:48;;;;;;;17.73;8.07;;;;;;;7.18;100.00;95988.84;4987897;28;20058;-90
2021/12/28 05:55:13;;;;;;;14.40;7.53;;;;;;;7.33;100.00;96009.81;4953615;28;20039;-87
2021/12/28 05:57:39;;;;;;;15.63;7.53;;;;;;;7.41;100.00;96016.41;4971687;28;20037;-89
2021/12/28 06:00:09;;;;;;;14.27;7.03;;;;;;;7.38;100.00;96003.88;4955837;28;20063;-90
2021/12/28 06:02:36;;;;;;;15.13;7.20;;;;;;;7.23;100.00;95986.28;4951677;29;20526;-89
2021/12/28 06:05:02;;;;;;;12.25;6.93;;;;;;;7.27;100.00;95982.94;4950847;29;20039;-88
2021/12/28 06:07:28;;;;;;;13.43;7.82;;;;;;;7.38;100.00;95988.22;4957466;28;20038;-89
2021/12/28 06:09:56;;;;;;;14.38;7.53;;;;;;;7.35;100.00;95988.72;4952986;28;20042;-88
2021/12/28 06:12:22;;;;;;;15.50;8.23;;;;;;;7.37;100.00;95984.03;4952630;28;20035;-88
2021/12/28 06:14:48;;;;;;;13.93;7.57;;;;;;;7.37;100.00;95987.44;4968215;28;20031;-89
2021/12/28 06:17:13;;;;;;;11.55;6.85;;;;;;;7.29;100.00;95974.84;4951410;28;20046;-89
2021/12/28 06:19:39;;;;;;;43.33;8.75;;;;;;;7.31;100.00;95977.97;4950538;28;20042;-90
2021/12/28 06:22:05;;;;;;;14.63;7.78;;;;;;;7.32;100.00;95976.94;4967073;28;20031;-88
2021/12/28 06:24:30;;;;;;;12.55;7.55;;;;;;;7.36;100.00;95980.63;4971997;28;20030;-88
2021/12/28 06:26:56;;;;;;;12.07;7.13;;;;;;;7.28;100.00;95960.22;4956029;28;20504;-90
2021/12/28 06:29:22;;;;;;;11.65;6.78;;;;;;;7.32;100.00;95968.34;4956068;28;20031;-90
2021/12/28 06:31:49;;;;;;;13.45;7.28;;;;;;;7.24;100.00;95954.69;4969365;28;20041;-89
2021/12/28 06:34:15;;;;;;;11.30;6.53;;;;;;;7.23;100.00;95950.53;4969604;28;20050;-89
2021/12/28 06:36:42;;;;;;;9.88;6.50;;;;;;;7.24;100.00;95954.69;4972982;28;20031;-90
2021/12/28 06:39:08;;;;;;;11.35;6.90;;;;;;;7.34;100.00;95966.28;4973116;28;20038;-89
2021/12/28 06:41:34;;;;;;;11.27;7.35;;;;;;;7.19;100.00;95939.03;4989128;28;20097;-89
2021/12/28 06:43:59;;;;;;;11.70;6.68;;;;;;;7.32;100.00;95953.47;4973360;28;20034;-88
2021/12/28 06:46:25;;;;;;;12.13;6.63;;;;;;;7.23;100.00;95932.25;4988395;28;20129;-90
2021/12/28 06:48:50;;;;;;;12.27;6.68;;;;;;;7.28;100.00;95937.53;4989239;28;20041;-87
2021/12/28 06:51:16;;;;;;;9.75;6.20;;;;;;;7.24;100.00;95918.19;4971776;28;20030;-88
2021/12/28 06:53:42;;;;;;;14.75;5.20;;;;;;;7.15;100.00;95907.41;4969635;28;20488;-89
2021/12/28 06:56:08;;;;;;;15.38;5.88;;;;;;;7.35;100.00;95932.09;4980830;28;20030;-88
2021/12/28 06:58:34;;;;;;;11.32;5.70;;;;;;;7.37;100.00;95931.84;4974123;28;20037;-88
2021/12/28 07:01:00;;;;;;;628.65;42.85;;;;;;;7.10;100.00;95896.19;4989117;28;20050;-88
2021/12/28 07:03:26;;;;;;;64.10;7.15;;;;;;;7.12;100.00;95902.72;4973712;28;20042;-89
2021/12/28 07:05:52;;;;;;;49.00;7.25;;;;;;;7.12;100.00;95899.31;4972904;28;20619;-87
2021/12/28 07:08:18;;;;;;;62.80;7.70;;;;;;;7.18;100.00;95910.59;4953157;28;20038;-88
2021/12/28 07:10:44;;;;;;;5.93;4.00;;;;;;;7.20;100.00;95909.28;4952404;28;20047;-88
2021/12/28 07:13:10;;;;;;;214.13;15.10;;;;;;;7.25;100.00;95922.34;4956548;28;20030;-89
2021/12/28 07:15:36;;;;;;;92.22;11.13;;;;;;;7.11;100.00;95905.59;4935935;29;20525;-90
2021/12/28 07:18:02;;;;;;;318.15;16.23;;;;;;;6.92;100.00;95899.94;4950317;29;20043;-90
2021/12/28 07:20:27;;;;;;;182.00;12.57;;;;;;;7.03;100.00;95912.03;4934618;29;20031;-88
2021/12/28 07:22:53;;;;;;;6.00;4.35;;;;;;;7.02;100.00;95896.63;4949879;29;20035;-88
2021/12/28 07:25:19;;;;;;;7.57;3.08;;;;;;;7.12;100.00;95901.94;4950068;29;20046;-88
2021/12/28 07:27:45;;;;;;;307.65;16.27;;;;;;;6.95;100.00;95887.19;4950513;29;20090;-89
2021/12/28 07:30:13;;;;;;;91.07;8.55;;;;;;;6.94;100.00;95885.63;4935606;29;20035;-90
2021/12/28 07:32:39;;;;;;;6.43;4.88;;;;;;;7.03;100.00;95903.41;4944828;29;20027;-88
2021/12/28 07:35:07;;;;;;;51.00;6.13;;;;;;;6.87;100.00;95879.81;4944333;29;20063;-88
2021/12/28 07:37:33;;;;;;;164.93;11.48;;;;;;;6.89;100.00;95892.63;4950115;29;20059;-89
2021/12/28 07:39:58;;;;;;;8.55;5.15;;;;;;;7.07;100.00;95909.69;4965700;29;20063;-89
2021/12/28 07:42:24;;;;;;;8.40;6.10;;;;;;;7.02;100.00;95896.63;4965300;29;20039;-89
2021/12/28 07:44:50;;;;;;;110.63;11.38;;;;;;;7.08;100.00;95896.44;4958755;29;20065;-90
2021/12/28 07:47:16;;;;;;;8.88;5.95;;;;;;;7.11;100.00;95901.13;4974341;28;20034;-89
2021/12/28 07:49:42;;;;;;;9.55;4.25;;;;;;;7.04;100.00;95899.78;4958240;28;20060;-89
2021/12/28 07:52:07;;;;;;;12.98;5.93;;;;;;;6.93;100.00;95893.69;4961650;28;20061;-89
2021/12/28 07:54:33;;;;;;;10.15;5.68;;;;;;;6.80;100.00;95882.66;4992170;28;20034;-88
2021/12/28 07:56:59;;;;;;;10.05;4.93;;;;;;;6.89;100.00;95903.03;4990038;28;20444;-88
2021/12/28 07:59:24;;;;;;;6.45;4.13;;;;;;;6.89;100.00;95903.03;4957662;28;20042;-88
2021/12/28 08:01:50;;;;;;;23.35;6.03;;;;;;;6.76;100.00;95894.59;4975787;28;20053;-89
2021/12/28 08:04:19;;;;;;;8.32;4.68;;;;;;;6.84;100.00;95906.38;4961941;28;20038;-87
2021/12/28 08:06:45;;;;;;;31.40;7.68;;;;;;;6.66;100.00;95889.31;4953120;28;20049;-87
2021/12/28 08:09:11;;;;;;;17.85;5.20;;;;;;;6.66;100.00;95905.72;4969779;28;20026;-87
2021/12/28 08:11:37;;;;;;;9.10;4.75;;;;;;;6.56;100.00;95895.97;4953882;28;20463;-86
2021/12/28 08:14:04;;;;;;;14.00;6.05;;;;;;;6.78;100.00;95923.03;4957304;28;20031;-87
2021/12/28 08:16:30;;;;;;;7.28;4.15;;;;;;;6.53;100.00;95887.88;4970360;28;20026;-86
2021/12/28 08:18:56;;;;;;;11.63;4.70;;;;;;;6.64;100.00;95905.19;4968372;28;20042;-85
2021/12/28 08:21:23;;;;;;;8.93;3.40;;;;;;;6.74;100.00;95927.16;4967088;28;20536;-86
2021/12/28 08:23:49;;;;;;;6.45;3.55;;;;;;;6.78;100.00;95918.63;4958459;28;20043;-86
2021/12/28 08:26:16;;;;;;;6.38;4.32;;;;;;;6.80;100.00;95910.53;4987760;28;20031;-87
2021/12/28 08:28:42;;;;;;;4.82;3.00;;;;;;;6.80;100.00;95926.97;4948315;28;20046;-87
2021/12/28 08:31:09;;;;;;;4.13;3.20;;;;;;;6.79;100.00;95929.81;4951883;28;20040;-90
2021/12/28 08:33:34;;;;;;;4.50;2.67;;;;;;;6.80;100.00;95936.59;4971219;28;20117;-88
2021/12/28 08:36:00;;;;;;;3.60;2.13;;;;;;;6.65;100.00;95930.22;4981275;28;20058;-86
2021/12/28 08:38:25;;;;;;;6.47;3.63;;;;;;;6.76;100.00;95953.78;4979380;28;20046;-86
2021/12/28 08:40:51;;;;;;;4.80;3.22;;;;;;;6.87;100.00;95955.44;4952526;28;20038;-88
2021/12/28 08:43:17;;;;;;;7.57;3.55;;;;;;;6.76;100.00;95951.16;4968793;28;20138;-86
2021/12/28 08:45:43;;;;;;;3.83;2.88;;;;;;;6.80;100.00;95960.06;4966046;28;20062;-85
2021/12/28 08:48:11;;;;;;;3.47;2.95;;;;;;;6.63;100.00;95947.13;4952012;29;20047;-87
2021/12/28 08:50:38;;;;;;;5.13;3.20;;;;;;;6.78;100.00;95972.56;4971165;29;20042;-91
2021/12/28 08:53:17;;;;;;;5.53;3.20;;;;;;;6.75;100.00;95965.25;4957444;29;20137;-89
2021/12/28 08:55:44;;;;;;;3.70;2.83;;;;;;;6.45;100.00;95922.19;4958131;29;20054;-88
2021/12/28 08:58:13;;;;;;;3.72;2.55;;;;;;;6.63;100.00;95958.34;4960577;29;20024;-90
2021/12/28 09:00:40;;;;;;;4.95;3.03;;;;;;;6.77;100.00;95989.25;4962923;28;20039;-89
2021/12/28 09:03:06;;;;;;;4.05;2.60;;;;;;;6.76;100.00;95985.06;4960447;28;20046;-91
2021/12/28 09:05:37;;;;;;;3.70;2.35;;;;;;;6.77;100.00;95984.78;4965445;28;20057;-92
2021/12/28 09:08:11;;;;;;;2.97;2.25;;;;;;;6.80;100.00;95997.38;5000588;28;20145;-90
2021/12/28 09:11:04;;;;;;;5.93;2.70;;;;;;;6.71;100.00;95983.19;5016236;28;20539;-90
2021/12/28 09:13:30;;;;;;;4.22;2.60;;;;;;;6.70;100.00;95985.00;4971464;28;20042;-86
2021/12/28 09:15:56;;;;;;;3.10;2.33;;;;;;;6.77;100.00;95997.81;4994204;28;20477;-88
2021/12/28 09:18:22;;;;;;;4.88;3.08;;;;;;;6.85;100.00;96007.84;4955541;28;20039;-88
2021/12/28 09:20:50;;;;;;;3.53;2.42;;;;;;;6.80;100.00;95993.97;4923699;29;20035;-89
2021/12/28 09:23:17;;;;;;;9.40;3.17;;;;;;;6.76;100.00;96014.50;4958357;29;20032;-87
2021/12/28 09:25:42;;;;;;;4.68;2.30;;;;;;;6.71;100.00;96017.88;4947519;29;20038;-87
2021/12/28 09:28:09;;;;;;;4.60;2.38;;;;;;;6.80;100.00;96035.66;4932259;29;20036;-89
2021/12/28 09:30:37;;;;;;;5.82;3.70;;;;;;;6.64;100.00;96051.13;4935074;29;20031;-89
2021/12/28 09:33:05;;;;;;;9.23;5.07;;;;;;;6.53;100.00;96037.19;4950812;29;20023;-87
2021/12/28 09:35:32;;;;;;;8.43;5.22;;;;;;;6.47;100.00;96042.56;4952734;29;20106;-89
2021/12/28 09:37:58;;;;;;;10.80;6.07;;;;;;;6.55;100.00;96060.41;4936364;29;20039;-86
2021/12/28 09:40:23;;;;;;;9.65;6.03;;;;;;;6.30;100.00;96048.66;4969685;29;20055;-90
2021/12/28 09:42:49;;;;;;;8.18;5.57;;;;;;;6.32;100.00;96059.63;4936086;29;20035;-86
2021/12/28 09:45:18;;;;;;;10.50;6.00;;;;;;;6.40;100.00;96081.88;4952118;29;20046;-90
2021/12/28 09:47:44;;;;;;;10.07;5.85;;;;;;;6.38;100.00;96083.91;4935289;29;20037;-88
2021/12/28 09:50:14;;;;;;;6.60;4.95;;;;;;;6.37;100.00;96088.34;4936563;29;20061;-90
2021/12/28 09:52:41;;;;;;;8.55;4.97;;;;;;;6.17;100.00;96054.19;4938148;29;20390;-88
2021/12/28 09:55:12;;;;;;;6.82;4.80;;;;;;;6.21;100.00;96073.50;4918798;29;20039;-87
2021/12/28 09:57:40;;;;;;;5.20;4.10;;;;;;;6.08;100.00;96072.81;4920974;29;20122;-87
2021/12/28 10:00:10;;;;;;;4.72;3.50;;;;;;;6.10;100.00;96083.81;4927184;29;20043;-86
2021/12/28 10:02:36;;;;;;;4.03;3.13;;;;;;;6.11;100.00;96098.41;4952897;29;20529;-87
2021/12/28 10:05:08;;;;;;;4.55;3.58;;;;;;;6.27;100.00;96101.19;4931909;29;20034;-84
2021/12/28 10:07:46;;;;;;;4.35;3.38;;;;;;;6.52;100.00;96097.38;4942731;29;20430;-85
2021/12/28 10:10:13;;;;;;;5.53;4.00;;;;;;;6.52;100.00;96132.03;4946761;29;20050;-85
2021/12/28 10:12:42;;;;;;;5.60;3.78;;;;;;;6.52;100.00;96115.63;4922735;29;20027;-82
2021/12/28 10:15:15;;;;;;;5.50;4.60;;;;;;;6.66;100.00;96111.63;4957191;29;20106;-88
2021/12/28 10:17:44;;;;;;;6.72;4.88;;;;;;;6.75;100.00;96132.06;4958285;28;20052;-86
2021/12/28 10:20:15;;;;;;;5.25;4.32;;;;;;;6.86;100.00;96139.78;4949335;28;20508;-88
2021/12/28 10:22:46;;;;;;;4.78;3.55;;;;;;;6.96;100.00;96133.09;4950367;28;20039;-84
2021/12/28 10:25:19;;;;;;;6.35;3.80;;;;;;;7.19;100.00;96152.94;4943266;28;20027;-83
2021/12/28 10:27:52;;;;;;;5.75;3.97;;;;;;;6.94;100.00;96148.19;4956473;28;20038;-82
2021/12/28 10:30:22;;;;;;;5.32;3.83;;;;;;;6.83;100.00;96145.47;4971197;28;20034;-83
2021/12/28 10:32:51;;;;;;;4.22;3.20;;;;;;;6.92;100.00;96158.88;4949285;28;20396;-83
2021/12/28 10:35:21;;;;;;;6.03;3.67;;;;;;;6.71;100.00;96174.28;4963043;28;20034;-86
2021/12/28 10:37:53;;;;;;;7.10;3.67;;;;;;;6.58;100.00;96151.13;4958487;28;20605;-84
2021/12/28 10:40:38;;;;;;;9.30;5.80;;;;;;;6.46;100.00;96150.44;4961462;28;20039;-84
2021/12/28 10:43:13;;;;;;;10.50;5.78;;;;;;;6.54;100.00;96195.13;4941862;28;20033;-84
2021/12/28 10:45:50;;;;;;;11.35;6.25;;;;;;;6.70;100.00;96172.69;4954869;28;20115;-84
2021/12/28 10:48:22;;;;;;;14.40;7.43;;;;;;;6.68;100.00;96174.75;4957734;28;20400;-84
2021/12/28 10:50:50;;;;;;;15.88;7.60;;;;;;;6.70;100.00;96187.53;4957474;28;20081;-83
2021/12/28 10:53:25;;;;;;;12.60;7.38;;;;;;;6.75;100.00;96189.41;4980721;28;20506;-85
2021/12/28 10:55:55;;;;;;;17.65;9.02;;;;;;;6.66;100.00;96196.88;4958652;28;20034;-84
2021/12/28 10:58:31;;;;;;;18.15;10.05;;;;;;;6.63;100.00;96205.94;4945613;28;20396;-85
2021/12/28 11:01:10;;;;;;;16.17;8.82;;;;;;;6.62;100.00;96224.44;4949599;28;20041;-84
2021/12/28 11:03:40;;;;;;;17.17;9.57;;;;;;;6.67;100.00;96227.09;4943888;28;20035;-83
2021/12/28 11:06:09;;;;;;;17.85;9.48;;;;;;;6.66;100.00;96234.13;4960751;28;20389;-85
2021/12/28 11:08:35;;;;;;;17.35;9.70;;;;;;;6.91;100.00;96239.94;4960837;28;20055;-84
2021/12/28 11:11:08;;;;;;;17.58;9.63;;;;;;;6.95;100.00;96256.69;4952934;28;20033;-84
2021/12/28 11:13:35;;;;;;;15.07;8.93;;;;;;;7.04;100.00;96252.66;4962874;28;20026;-84
2021/12/28 11:16:05;;;;;;;23.15;10.80;;;;;;;7.08;100.00;96260.81;4961965;28;20031;-84
2021/12/28 11:18:34;;;;;;;62.92;14.73;;;;;;;7.50;100.00;96282.97;4986121;28;20050;-84
2021/12/28 11:21:19;;;;;;;17.58;10.07;;;;;;;7.49;100.00;96284.81;4991941;28;20035;-84
2021/12/28 11:23:48;;;;;;;18.52;10.07;;;;;;;7.57;100.00;96289.59;4950557;28;20043;-82